createdAt,value
2018-02-10T00:01:22.583Z,2.55
2018-02-10T00:03:50.790Z,2.50
2018-02-10T00:06:18.968Z,2.52
2018-02-10T00:08:47.185Z,2.54
2018-02-10T00:11:15.374Z,2.53
2018-02-10T00:13:43.551Z,2.53
2018-02-10T00:16:11.765Z,2.54
2018-02-10T00:18:40.720Z,2.52
2018-02-10T00:21:08.918Z,2.53
2018-02-10T00:23:37.872Z,2.58
2018-02-10T00:26:06.077Z,2.56
2018-02-10T00:28:34.266Z,2.60
2018-02-10T00:31:03.236Z,2.66
2018-02-10T00:33:31.437Z,2.65
2018-02-10T00:36:00.393Z,2.61
2018-02-10T00:38:28.581Z,2.56
2018-02-10T00:40:56.773Z,2.57
2018-02-10T00:43:25.721Z,2.51
2018-02-10T00:45:53.950Z,2.42
2018-02-10T00:48:22.919Z,2.46
2018-02-10T00:50:51.121Z,2.42
2018-02-10T00:53:20.079Z,2.51
2018-02-10T00:55:48.302Z,2.45
2018-02-10T00:58:16.473Z,2.38
2018-02-10T01:00:44.665Z,2.39
2018-02-10T01:03:12.981Z,2.44
2018-02-10T01:05:41.162Z,2.37
2018-02-10T01:08:09.371Z,2.33
2018-02-10T01:10:37.556Z,2.31
2018-02-10T01:13:05.735Z,2.28
2018-02-10T01:15:33.941Z,2.32
2018-02-10T01:18:02.150Z,2.34
2018-02-10T01:20:31.106Z,2.29
2018-02-10T01:22:59.305Z,2.21
2018-02-10T01:25:27.510Z,2.26
2018-02-10T01:27:55.704Z,2.29
2018-02-10T01:30:23.889Z,2.28
2018-02-10T01:32:52.069Z,2.36
2018-02-10T01:35:20.272Z,2.33
2018-02-10T01:37:48.518Z,2.25
2018-02-10T01:40:16.686Z,2.27
2018-02-10T01:42:44.879Z,2.27
2018-02-10T01:45:13.839Z,2.22
2018-02-10T01:47:42.067Z,2.21
2018-02-10T01:50:22.327Z,2.18
2018-02-10T01:52:50.589Z,2.16
2018-02-10T01:55:18.767Z,2.23
2018-02-10T01:57:46.961Z,2.23
2018-02-10T02:00:15.179Z,2.23
2018-02-10T02:02:43.362Z,2.23
2018-02-10T02:05:11.547Z,2.22
2018-02-10T02:07:39.747Z,2.25
2018-02-10T02:10:07.966Z,2.22
2018-02-10T02:12:36.166Z,2.22
2018-02-10T02:15:04.470Z,2.20
2018-02-10T02:17:32.745Z,2.32
2018-02-10T02:20:00.947Z,2.28
2018-02-10T02:22:29.911Z,2.22
2018-02-10T02:24:58.103Z,2.14
2018-02-10T02:27:26.305Z,2.10
2018-02-10T02:29:55.257Z,2.13
2018-02-10T02:32:23.478Z,2.16
2018-02-10T02:34:52.433Z,2.18
2018-02-10T02:37:20.765Z,2.15
2018-02-10T02:39:48.967Z,2.25
2018-02-10T02:42:17.171Z,2.26
2018-02-10T02:44:46.173Z,2.33
2018-02-10T02:47:14.365Z,2.21
2018-02-10T02:49:43.327Z,2.16
2018-02-10T02:52:11.513Z,2.20
2018-02-10T02:54:39.690Z,2.25
2018-02-10T02:57:08.666Z,2.19
2018-02-10T02:59:36.868Z,2.09
2018-02-10T03:02:05.821Z,2.05
2018-02-10T03:04:34.075Z,2.13
2018-02-10T03:07:02.262Z,2.06
2018-02-10T03:09:30.477Z,2.07
2018-02-10T03:11:58.660Z,1.98
2018-02-10T03:14:27.629Z,2.05
2018-02-10T03:16:55.852Z,2.14
2018-02-10T03:19:24.061Z,2.06
2018-02-10T03:21:52.254Z,2.08
2018-02-10T03:24:20.458Z,2.05
2018-02-10T03:26:49.409Z,2.04
2018-02-10T03:29:17.619Z,2.08
2018-02-10T03:31:46.591Z,2.09
2018-02-10T03:34:14.767Z,2.03
2018-02-10T03:36:43.001Z,2.07
2018-02-10T03:39:11.202Z,2.11
2018-02-10T03:41:39.410Z,2.20
2018-02-10T03:44:07.642Z,2.14
2018-02-10T03:46:35.841Z,1.95
2018-02-10T03:49:04.060Z,1.93
2018-02-10T03:51:32.258Z,2.01
2018-02-10T03:54:00.464Z,1.96
2018-02-10T03:56:28.681Z,1.92
2018-02-10T03:58:57.642Z,1.86
2018-02-10T04:01:25.820Z,1.86
2018-02-10T04:03:54.053Z,1.83
2018-02-10T04:06:22.274Z,1.92
2018-02-10T04:08:50.541Z,2.13
2018-02-10T04:11:18.730Z,2.13
2018-02-10T04:13:46.922Z,2.15
2018-02-10T04:16:15.903Z,2.13
2018-02-10T04:18:44.933Z,2.27
2018-02-10T04:21:13.119Z,2.20
2018-02-10T04:23:41.394Z,2.25
2018-02-10T04:26:09.588Z,2.07
2018-02-10T04:28:37.793Z,2.09
2018-02-10T04:31:06.047Z,2.16
2018-02-10T04:33:34.230Z,2.26
2018-02-10T04:36:02.426Z,2.21
2018-02-10T04:38:31.393Z,2.15
2018-02-10T04:40:59.642Z,2.13
2018-02-10T04:43:27.835Z,2.19
2018-02-10T04:45:56.063Z,2.21
2018-02-10T04:48:24.250Z,2.22
2018-02-10T04:50:52.479Z,2.25
2018-02-10T04:53:20.709Z,2.24
2018-02-10T04:55:48.914Z,2.27
2018-02-10T04:58:17.166Z,2.28
2018-02-10T05:00:45.449Z,2.30
2018-02-10T05:03:13.653Z,2.35
2018-02-10T05:05:41.863Z,2.33
2018-02-10T05:08:10.853Z,2.33
2018-02-10T05:10:39.841Z,2.38
2018-02-10T05:13:08.841Z,2.48
2018-02-10T05:15:37.805Z,2.52
2018-02-10T05:18:05.993Z,2.43
2018-02-10T05:20:34.948Z,2.40
2018-02-10T05:23:03.122Z,2.36
2018-02-10T05:25:31.342Z,2.34
2018-02-10T05:28:00.358Z,2.34
2018-02-10T05:30:28.669Z,2.36
2018-02-10T05:32:56.880Z,2.35
2018-02-10T05:35:25.074Z,2.39
2018-02-10T05:37:54.027Z,2.41
2018-02-10T05:40:22.214Z,2.52
2018-02-10T05:42:50.458Z,2.46
2018-02-10T05:45:18.944Z,2.43
2018-02-10T05:47:47.148Z,2.45
2018-02-10T05:50:15.346Z,2.44
2018-02-10T05:52:43.562Z,2.50
2018-02-10T05:55:11.739Z,2.48
2018-02-10T05:57:40.045Z,2.49
2018-02-10T06:00:08.259Z,2.49
2018-02-10T06:02:37.212Z,2.49
2018-02-10T06:05:05.405Z,2.49
2018-02-10T06:07:33.606Z,2.48
2018-02-10T06:10:02.603Z,2.55
2018-02-10T06:12:30.816Z,2.52
2018-02-10T06:14:59.022Z,2.52
2018-02-10T06:17:27.257Z,2.53
2018-02-10T06:19:55.486Z,2.50
2018-02-10T06:22:24.442Z,2.50
2018-02-10T06:24:52.650Z,2.57
2018-02-10T06:27:21.659Z,2.55
2018-02-10T06:29:50.651Z,2.56
2018-02-10T06:32:19.678Z,2.62
2018-02-10T06:34:47.929Z,2.64
2018-02-10T06:37:16.117Z,2.65
2018-02-10T06:39:44.305Z,2.64
2018-02-10T06:42:12.490Z,2.64
2018-02-10T06:44:40.677Z,2.70
2018-02-10T06:47:08.851Z,2.66
2018-02-10T06:49:37.045Z,2.65
2018-02-10T06:52:05.376Z,2.70
2018-02-10T06:54:33.614Z,2.66
2018-02-10T06:57:02.586Z,2.66
2018-02-10T06:59:30.789Z,2.55
2018-02-10T07:01:59.736Z,2.51
2018-02-10T07:04:27.933Z,2.56
2018-02-10T07:06:56.134Z,2.57
2018-02-10T07:09:25.246Z,2.51
2018-02-10T07:11:53.492Z,2.49
2018-02-10T07:14:22.062Z,2.52
2018-02-10T07:16:50.286Z,2.47
2018-02-10T07:19:18.481Z,2.46
2018-02-10T07:21:46.659Z,2.58
2018-02-10T07:24:14.840Z,2.58
2018-02-10T07:26:43.015Z,2.56
2018-02-10T07:29:11.201Z,2.60
2018-02-10T07:31:39.389Z,2.64
2018-02-10T07:34:07.595Z,2.64
2018-02-10T07:36:35.798Z,2.62
2018-02-10T07:39:04.087Z,2.66
2018-02-10T07:41:32.285Z,2.69
2018-02-10T07:44:00.479Z,2.70
2018-02-10T07:46:29.443Z,2.75
2018-02-10T07:48:57.643Z,2.80
2018-02-10T07:51:25.823Z,2.83
2018-02-10T07:53:54.824Z,2.83
2018-02-10T07:56:23.806Z,2.86
2018-02-10T07:58:52.054Z,2.85
2018-02-10T08:01:20.413Z,2.86
2018-02-10T08:03:48.589Z,2.86
2018-02-10T08:06:16.875Z,2.92
2018-02-10T08:08:45.098Z,2.93
2018-02-10T08:11:14.079Z,2.94
2018-02-10T08:13:42.261Z,2.90
2018-02-10T08:16:11.213Z,2.85
2018-02-10T08:18:39.390Z,2.88
2018-02-10T08:21:07.550Z,2.85
2018-02-10T08:23:35.736Z,2.91
2018-02-10T08:26:03.929Z,2.83
2018-02-10T08:28:32.124Z,2.89
2018-02-10T08:31:01.081Z,2.89
2018-02-10T08:33:29.281Z,2.86
2018-02-10T08:35:57.465Z,2.76
2018-02-10T08:38:26.433Z,2.79
2018-02-10T08:40:54.648Z,2.85
2018-02-10T08:43:23.619Z,2.80
2018-02-10T08:45:51.851Z,2.83
2018-02-10T08:48:20.047Z,2.80
2018-02-10T08:50:48.271Z,2.80
2018-02-10T08:53:16.491Z,2.84
2018-02-10T08:55:44.669Z,2.74
2018-02-10T08:58:12.882Z,2.68
2018-02-10T09:00:41.835Z,2.70
2018-02-10T09:03:10.028Z,2.76
2018-02-10T09:05:38.217Z,2.70
2018-02-10T09:08:06.449Z,2.69
2018-02-10T09:10:34.651Z,2.68
2018-02-10T09:13:02.866Z,2.66
2018-02-10T09:15:31.847Z,2.75
2018-02-10T09:18:00.028Z,2.83
2018-02-10T09:20:28.995Z,2.95
2018-02-10T09:22:57.218Z,2.97
2018-02-10T09:25:25.404Z,2.96
2018-02-10T09:27:53.603Z,2.99
2018-02-10T09:30:21.806Z,3.00
2018-02-10T09:32:50.758Z,2.96
2018-02-10T09:35:18.942Z,2.98
2018-02-10T09:37:47.123Z,2.93
2018-02-10T09:40:15.312Z,2.98
2018-02-10T09:42:43.482Z,2.88
2018-02-10T09:45:11.684Z,2.88
2018-02-10T09:47:40.663Z,2.92
2018-02-10T09:50:08.858Z,2.95
2018-02-10T09:52:37.826Z,3.03
2018-02-10T09:55:06.023Z,3.08
2018-02-10T09:57:35.037Z,3.08
2018-02-10T10:00:03.230Z,3.08
2018-02-10T10:02:31.410Z,2.99
2018-02-10T10:04:59.615Z,3.02
2018-02-10T10:07:27.824Z,3.08
2018-02-10T10:09:56.781Z,3.11
2018-02-10T10:12:24.954Z,3.24
2018-02-10T10:14:53.144Z,3.32
2018-02-10T10:17:21.317Z,3.29
2018-02-10T10:19:49.491Z,3.12
2018-02-10T10:22:17.674Z,3.07
2018-02-10T10:24:46.630Z,3.09
2018-02-10T10:27:14.824Z,3.07
2018-02-10T10:29:42.998Z,3.12
2018-02-10T10:32:11.208Z,3.23
2018-02-10T10:34:40.162Z,3.30
2018-02-10T10:37:08.377Z,3.10
2018-02-10T10:39:37.326Z,2.90
2018-02-10T10:42:05.560Z,2.95
2018-02-10T10:44:33.754Z,3.01
2018-02-10T10:47:01.957Z,3.01
2018-02-10T10:49:30.195Z,3.00
2018-02-10T10:51:58.389Z,2.92
2018-02-10T10:54:26.633Z,2.99
2018-02-10T10:56:54.865Z,3.04
2018-02-10T10:59:23.075Z,2.98
2018-02-10T11:01:52.044Z,2.95
2018-02-10T11:04:20.274Z,2.79
2018-02-10T11:06:48.442Z,2.80
2018-02-10T11:09:16.610Z,2.98
2018-02-10T11:11:44.821Z,2.96
2018-02-10T11:14:13.022Z,2.92
2018-02-10T11:16:41.220Z,3.01
2018-02-10T11:19:09.421Z,3.02
2018-02-10T11:21:37.595Z,3.08
2018-02-10T11:24:05.782Z,3.08
2018-02-10T11:26:34.006Z,3.15
2018-02-10T11:29:02.950Z,3.14
2018-02-10T11:31:31.955Z,2.97
2018-02-10T11:34:00.155Z,2.96
2018-02-10T11:36:28.330Z,3.04
2018-02-10T11:38:56.515Z,3.07
2018-02-10T11:41:25.465Z,3.01
2018-02-10T11:43:53.703Z,2.99
2018-02-10T11:46:21.870Z,3.00
2018-02-10T11:48:50.812Z,2.91
2018-02-10T11:51:18.989Z,2.93
2018-02-10T11:53:47.209Z,2.97
2018-02-10T11:56:16.166Z,2.95
2018-02-10T11:58:44.395Z,2.91
2018-02-10T12:01:12.585Z,2.92
2018-02-10T12:03:40.759Z,2.86
2018-02-10T12:06:08.935Z,2.87
2018-02-10T12:08:37.130Z,2.69
2018-02-10T12:11:05.341Z,2.54
2018-02-10T12:13:34.285Z,2.47
2018-02-10T12:16:02.470Z,2.44
2018-02-10T12:18:30.661Z,2.49
2018-02-10T12:20:58.859Z,2.48
2018-02-10T12:23:27.834Z,2.41
2018-02-10T12:25:56.021Z,2.32
2018-02-10T12:28:24.223Z,2.39
2018-02-10T12:30:52.510Z,2.52
2018-02-10T12:33:20.703Z,2.58
2018-02-10T12:35:48.901Z,2.63
2018-02-10T12:38:17.142Z,2.40
2018-02-10T12:40:45.399Z,2.57
2018-02-10T12:43:14.373Z,2.68
2018-02-10T12:45:43.443Z,2.70
2018-02-10T12:51:05.805Z,2.83
2018-02-10T12:53:34.086Z,2.97
2018-02-10T12:56:02.294Z,2.91
2018-02-10T12:58:31.301Z,2.92
2018-02-10T13:00:59.557Z,2.94
2018-02-10T13:03:28.542Z,2.97
2018-02-10T13:05:57.511Z,2.89
2018-02-10T13:08:25.684Z,2.87
2018-02-10T13:10:53.910Z,2.90
2018-02-10T13:13:22.093Z,2.91
2018-02-10T13:15:50.286Z,2.90
2018-02-10T13:18:18.469Z,2.87
2018-02-10T13:20:46.681Z,2.92
2018-02-10T13:23:14.883Z,2.97
2018-02-10T13:25:43.094Z,3.00
2018-02-10T13:28:11.312Z,2.96
2018-02-10T13:30:40.339Z,3.01
2018-02-10T13:33:08.573Z,2.99
2018-02-10T13:35:36.761Z,3.01
2018-02-10T13:38:05.734Z,2.95
2018-02-10T13:40:33.943Z,2.99
2018-02-10T13:43:02.898Z,3.00
2018-02-10T13:45:31.120Z,3.04
2018-02-10T13:47:59.301Z,3.09
2018-02-10T13:50:27.490Z,3.06
2018-02-10T13:52:55.684Z,3.06
2018-02-10T13:55:23.881Z,3.11
2018-02-10T13:57:52.065Z,3.01
2018-02-10T14:00:21.033Z,3.09
2018-02-10T14:02:49.202Z,3.04
2018-02-10T14:05:18.135Z,2.99
2018-02-10T14:07:47.122Z,2.90
2018-02-10T14:10:16.080Z,2.97
2018-02-10T14:12:44.275Z,2.95
2018-02-10T14:15:12.466Z,2.99
2018-02-10T14:17:41.512Z,3.00
2018-02-10T14:20:09.690Z,2.90
2018-02-10T14:22:37.914Z,2.91
2018-02-10T14:25:06.853Z,3.01
2018-02-10T14:27:35.046Z,2.81
2018-02-10T14:30:03.270Z,2.84
2018-02-10T14:32:32.219Z,2.87
2018-02-10T14:35:00.401Z,2.95
2018-02-10T14:37:28.578Z,2.99
2018-02-10T14:39:56.754Z,3.01
2018-02-10T14:42:24.935Z,3.03
2018-02-10T14:44:53.113Z,2.98
2018-02-10T14:47:21.347Z,3.00
2018-02-10T14:49:49.513Z,3.06
2018-02-10T14:52:17.689Z,3.06
2018-02-10T14:54:45.866Z,3.07
2018-02-10T14:57:14.046Z,3.04
2018-02-10T14:59:42.228Z,3.00
2018-02-10T15:02:10.411Z,2.98
2018-02-10T15:04:38.590Z,2.96
2018-02-10T15:07:06.763Z,2.96
2018-02-10T15:09:34.926Z,2.98
2018-02-10T15:12:03.127Z,3.00
2018-02-10T15:14:31.294Z,3.03
2018-02-10T15:16:59.498Z,3.01
2018-02-10T15:19:28.443Z,3.04
2018-02-10T15:21:56.616Z,3.06
2018-02-10T15:24:24.799Z,3.01
2018-02-10T15:26:52.993Z,2.95
2018-02-10T15:29:21.158Z,2.99
2018-02-10T15:32:07.227Z,2.92
2018-02-10T15:34:47.235Z,2.92
2018-02-10T15:37:16.174Z,2.99
2018-02-10T15:39:44.361Z,2.93
2018-02-10T17:04:10.258Z,2.31
2018-02-10T17:06:38.434Z,2.37
2018-02-10T17:09:06.606Z,2.45
2018-02-10T17:11:34.811Z,2.52
2018-02-10T17:14:03.767Z,2.51
2018-02-10T17:16:31.952Z,2.50
2018-02-10T17:19:00.134Z,2.57
2018-02-10T17:21:28.358Z,2.53
2018-02-10T17:23:59.493Z,2.53
2018-02-10T17:26:27.899Z,2.53
2018-02-10T17:28:56.094Z,2.52
2018-02-10T17:31:24.278Z,2.50
2018-02-10T17:33:52.478Z,2.53
2018-02-10T17:36:21.447Z,2.49
2018-02-10T17:38:49.629Z,2.51
2018-02-10T17:41:17.830Z,2.51
2018-02-10T17:43:45.995Z,2.48
2018-02-10T17:46:14.935Z,2.50
2018-02-10T17:48:43.155Z,2.44
2018-02-10T17:51:12.099Z,2.41
2018-02-10T17:53:40.280Z,2.40
2018-02-10T17:56:08.485Z,2.42
2018-02-10T17:58:36.664Z,2.48
2018-02-10T18:01:04.835Z,2.44
2018-02-10T18:03:33.034Z,2.42
2018-02-10T18:06:01.974Z,2.44
2018-02-10T18:08:30.178Z,2.47
2018-02-10T18:10:58.366Z,2.41
2018-02-10T18:13:27.314Z,2.43
2018-02-10T18:15:55.484Z,2.47
2018-02-10T18:18:23.665Z,2.45
2018-02-10T18:20:51.837Z,2.43
2018-02-10T18:23:20.029Z,2.47
2018-02-10T18:25:48.223Z,2.41
2018-02-10T18:28:16.410Z,2.36
2018-02-10T18:30:45.363Z,2.35
2018-02-10T18:33:13.538Z,2.36
2018-02-10T18:35:41.719Z,2.31
2018-02-10T18:38:09.975Z,2.38
2018-02-10T18:40:38.148Z,2.35
2018-02-10T18:43:06.326Z,2.51
2018-02-10T18:45:34.516Z,2.42
2018-02-10T18:48:02.710Z,2.40
2018-02-10T18:50:30.902Z,2.35
2018-02-10T18:52:59.850Z,2.38
2018-02-10T18:55:28.021Z,2.29
2018-02-10T18:57:56.202Z,2.30
2018-02-10T19:00:24.378Z,2.29
2018-02-10T19:02:52.560Z,2.31
2018-02-10T19:05:20.733Z,2.35
2018-02-10T19:07:48.898Z,2.47
2018-02-10T19:10:17.870Z,2.35
2018-02-10T19:12:46.054Z,2.37
2018-02-10T19:15:14.235Z,2.35
2018-02-10T19:17:42.432Z,2.39
2018-02-10T19:20:11.418Z,2.31
2018-02-10T19:22:39.614Z,2.23
2018-02-10T19:25:07.816Z,2.21
2018-02-10T19:27:36.762Z,2.20
2018-02-10T19:30:04.927Z,2.04
2018-02-10T19:32:33.112Z,1.99
2018-02-10T19:35:01.305Z,2.00
2018-02-10T19:37:29.501Z,2.13
2018-02-10T19:39:58.444Z,2.10
2018-02-10T19:42:26.639Z,2.04
2018-02-10T19:44:54.839Z,1.93
2018-02-10T19:47:23.793Z,1.96
2018-02-10T19:49:51.988Z,1.89
2018-02-10T19:52:20.177Z,1.94
2018-02-10T19:54:49.123Z,1.91
2018-02-10T19:57:18.074Z,2.01
2018-02-10T19:59:47.016Z,2.06
2018-02-10T20:02:15.198Z,1.95
2018-02-10T20:04:43.376Z,2.05
2018-02-10T20:07:11.564Z,2.11
2018-02-10T20:09:39.749Z,2.03
2018-02-10T20:12:08.700Z,1.90
2018-02-10T20:14:36.899Z,1.73
2018-02-10T20:17:05.075Z,1.81
2018-02-10T20:19:33.286Z,1.81
2018-02-10T20:22:01.463Z,1.82
2018-02-10T20:24:29.648Z,1.88
2018-02-10T20:26:57.840Z,1.92
2018-02-10T20:29:26.019Z,1.97
2018-02-10T20:31:54.217Z,2.09
2018-02-10T20:34:22.386Z,2.36
2018-02-10T20:36:50.554Z,2.12
2018-02-10T20:39:19.524Z,1.99
2018-02-10T20:41:47.712Z,1.92
2018-02-10T20:44:15.886Z,1.99
2018-02-10T20:46:44.081Z,2.03
2018-02-10T20:49:12.250Z,1.86
2018-02-10T20:51:40.424Z,1.83
2018-02-10T20:54:08.623Z,1.75
2018-02-10T20:56:36.798Z,1.77
2018-02-10T20:59:04.975Z,1.76
2018-02-10T21:01:33.217Z,1.79
2018-02-10T21:04:01.410Z,1.77
2018-02-10T21:06:29.586Z,1.82
2018-02-10T21:08:57.755Z,1.79
2018-02-10T21:11:25.946Z,1.82
2018-02-10T21:13:54.126Z,1.93
2018-02-10T21:16:23.085Z,1.96
2018-02-10T21:18:51.265Z,2.02
2018-02-10T21:21:19.435Z,1.97
2018-02-10T21:23:47.638Z,1.84
2018-02-10T21:26:15.840Z,1.88
2018-02-10T21:28:44.770Z,1.84
2018-02-10T21:31:12.949Z,1.82
2018-02-10T21:33:41.132Z,1.86
2018-02-10T21:36:09.334Z,1.92
2018-02-10T21:38:37.537Z,1.94
2018-02-10T21:41:05.714Z,1.94
2018-02-10T21:43:33.884Z,1.92
2018-02-10T21:46:02.066Z,1.98
2018-02-10T21:48:30.256Z,1.96
2018-02-10T21:50:58.458Z,1.98
2018-02-10T21:53:26.622Z,2.03
2018-02-10T21:55:54.804Z,2.01
2018-02-10T21:58:23.015Z,2.02
2018-02-10T22:00:51.947Z,2.05
2018-02-10T22:03:20.130Z,2.18
2018-02-10T22:05:48.303Z,2.09
2018-02-10T22:08:16.468Z,2.03
2018-02-10T22:10:44.654Z,2.00
2018-02-10T22:13:12.817Z,1.95
2018-02-10T22:15:41.277Z,1.91
2018-02-10T22:18:09.456Z,2.00
2018-02-10T22:20:37.630Z,2.08
2018-02-10T22:23:05.806Z,1.96
2018-02-10T22:25:33.988Z,1.98
2018-02-10T22:28:02.149Z,2.01
2018-02-10T22:30:30.328Z,1.91
2018-02-10T22:32:58.500Z,2.06
2018-02-10T22:35:26.679Z,1.97
2018-02-10T22:37:54.841Z,1.79
2018-02-10T22:40:23.811Z,1.83
2018-02-10T22:42:52.015Z,1.88
2018-02-10T22:45:20.212Z,1.87
2018-02-10T22:47:48.394Z,1.85
2018-02-10T22:50:16.578Z,1.83
2018-02-10T22:52:44.766Z,1.81
2018-02-10T22:55:12.935Z,1.83
2018-02-10T22:57:41.142Z,1.89
2018-02-10T23:00:10.090Z,1.91
2018-02-10T23:02:38.269Z,2.01
2018-02-10T23:05:06.459Z,1.98
2018-02-10T23:07:34.630Z,1.93
2018-02-10T23:10:02.818Z,1.80
2018-02-10T23:12:30.995Z,1.77
2018-02-10T23:14:59.174Z,1.79
2018-02-10T23:17:27.358Z,1.60
2018-02-10T23:19:56.294Z,1.59
2018-02-10T23:22:24.477Z,1.66
2018-02-10T23:24:52.661Z,1.61
2018-02-10T23:27:20.830Z,1.63
2018-02-10T23:29:49.035Z,1.60
2018-02-10T23:32:17.227Z,1.70
2018-02-10T23:34:46.189Z,1.64
2018-02-10T23:37:14.366Z,1.75
2018-02-10T23:39:42.558Z,1.77
2018-02-10T23:42:10.738Z,2.03
2018-02-10T23:44:38.908Z,1.99
2018-02-10T23:47:07.086Z,1.71
2018-02-10T23:49:36.026Z,1.60
2018-02-10T23:52:04.202Z,1.57
2018-02-10T23:54:32.382Z,1.59
2018-02-10T23:57:00.567Z,1.65
2018-02-10T23:59:28.765Z,1.62
